Time;durP1;ratioP1;P1;durP2;ratioP2;P2;SDS_P1;SDS_P2;PMS_P1;PMS_P2;Temp;Humidity;BMP_temperature;BMP_pressure;BME280_temperature;BME280_humidity;BME280_pressure;Samples;Min_cycle;Max_cycle;Signal;HPM_P1;HPM_P2
2023/03/01 00:02:41;;;;;;;44.85;21.52;;;-2.70;99.90;;;;;;6347691;22;20033;-82
2023/03/01 00:05:28;;;;;;;36.50;20.20;;;-2.80;99.90;;;;;;6348684;22;20026;-82
2023/03/01 00:08:15;;;;;;;43.30;21.45;;;-2.70;99.90;;;;;;6345232;22;20054;-81
2023/03/01 00:11:14;;;;;;;38.58;21.88;;;-2.80;99.90;;;;;;6368287;22;20030;-82
2023/03/01 00:14:04;;;;;;;41.67;21.77;;;-2.90;99.90;;;;;;6371437;22;20102;-81
2023/03/01 00:16:54;;;;;;;38.35;20.80;;;-2.90;99.90;;;;;;6372111;22;20044;-81
2023/03/01 00:19:41;;;;;;;38.13;21.35;;;-3.10;99.90;;;;;;6373807;22;20074;-81
2023/03/01 00:22:29;;;;;;;43.80;23.63;;;-3.20;99.90;;;;;;6371638;22;20026;-82
2023/03/01 00:25:18;;;;;;;42.13;21.50;;;-3.20;99.90;;;;;;6371139;22;20041;-81
2023/03/01 00:28:06;;;;;;;51.97;24.05;;;-3.40;99.90;;;;;;6370649;22;20022;-84
2023/03/01 00:30:53;;;;;;;40.47;22.58;;;-3.40;99.90;;;;;;6370037;22;20018;-81
2023/03/01 00:33:41;;;;;;;40.60;20.90;;;-3.60;99.90;;;;;;6347129;22;20037;-83
2023/03/01 00:36:31;;;;;;;47.50;23.30;;;-3.60;99.90;;;;;;6371144;22;20026;-83
2023/03/01 00:39:18;;;;;;;46.03;23.33;;;-3.70;99.90;;;;;;6346429;22;20033;-81
2023/03/01 00:42:06;;;;;;;43.10;23.52;;;-3.70;99.90;;;;;;6370919;22;20034;-81
2023/03/01 00:44:53;;;;;;;46.03;22.25;;;-3.70;99.90;;;;;;6354364;22;20026;-83
2023/03/01 00:47:40;;;;;;;44.25;22.65;;;-3.70;99.90;;;;;;6392296;22;20022;-80
2023/03/01 00:50:27;;;;;;;44.92;22.95;;;-3.70;99.90;;;;;;6380502;22;20022;-83
2023/03/01 00:53:16;;;;;;;42.17;21.88;;;-3.80;1.00;;;;;;6377359;22;20034;-81
2023/03/01 00:56:05;;;;;;;48.28;23.23;;;-3.90;1.00;;;;;;6371147;22;20044;-80
2023/03/01 00:58:52;;;;;;;42.63;22.77;;;-3.90;1.00;;;;;;6348990;22;20034;-82
2023/03/01 01:01:40;;;;;;;49.25;22.30;;;-3.90;1.00;;;;;;6326539;22;20026;-82
2023/03/01 01:04:27;;;;;;;46.63;23.25;;;-3.90;1.00;;;;;;6347966;22;20027;-83
2023/03/01 01:07:14;;;;;;;41.53;22.23;;;-4.00;1.00;;;;;;6372696;22;20110;-82
2023/03/01 01:10:02;;;;;;;48.47;23.50;;;-4.00;43.00;;;;;;6347920;22;20117;-83
2023/03/01 01:12:49;;;;;;;46.20;23.50;;;-4.00;83.20;;;;;;6374401;22;20033;-82
2023/03/01 01:15:36;;;;;;;42.97;22.92;;;-4.00;99.90;;;;;;6347962;22;20026;-82
2023/03/01 01:18:26;;;;;;;46.63;23.20;;;-4.10;99.90;;;;;;6371879;22;20026;-81
2023/03/01 01:21:16;;;;;;;40.00;22.42;;;-4.20;99.90;;;;;;6347440;22;20022;-84
2023/03/01 01:24:04;;;;;;;44.38;23.85;;;-4.20;99.90;;;;;;6371349;22;20074;-81
2023/03/01 01:26:54;;;;;;;49.20;23.50;;;-4.10;99.90;;;;;;6364696;22;20023;-83
2023/03/01 01:29:41;;;;;;;51.60;23.90;;;-4.10;99.90;;;;;;6386491;22;20018;-81
2023/03/01 01:32:29;;;;;;;48.13;24.60;;;-4.10;1.00;;;;;;6364851;22;20114;-82
2023/03/01 01:35:16;;;;;;;48.20;23.63;;;-4.10;1.00;;;;;;6382242;22;20566;-80
2023/03/01 01:38:03;;;;;;;51.88;25.40;;;-3.90;13.70;;;;;;6371643;22;20018;-82
2023/03/01 01:40:51;;;;;;;50.22;25.40;;;-3.80;61.10;;;;;;6373117;22;20079;-80
2023/03/01 01:44:07;;;;;;;48.47;24.83;;;-3.80;1.00;;;;;;6370784;22;20022;-81
2023/03/01 01:47:07;;;;;;;51.80;25.45;;;-3.80;1.00;;;;;;6372591;22;20022;-83
2023/03/01 01:49:56;;;;;;;50.58;24.65;;;-3.80;60.30;;;;;;6374130;22;20052;-81
2023/03/01 01:52:43;;;;;;;49.80;24.25;;;-3.70;99.90;;;;;;6372266;22;20022;-81
2023/03/01 01:55:33;;;;;;;48.40;24.80;;;-3.60;71.30;;;;;;6369632;22;20448;-80
2023/03/01 01:58:28;;;;;;;52.53;26.40;;;-3.60;6.10;;;;;;6369106;22;20029;-81
2023/03/01 02:01:16;;;;;;;47.00;24.33;;;-3.70;1.00;;;;;;6369424;22;20022;-82
2023/03/01 02:04:06;;;;;;;46.95;26.08;;;-3.60;15.30;;;;;;6345003;22;20026;-82
2023/03/01 02:07:03;;;;;;;56.92;26.30;;;-3.50;14.20;;;;;;6369299;22;20022;-82
2023/03/01 02:09:53;;;;;;;49.03;25.65;;;-3.50;1.00;;;;;;6350581;22;20122;-82
2023/03/01 02:12:41;;;;;;;46.55;24.77;;;-3.50;1.00;;;;;;6369827;22;20051;-82
2023/03/01 02:15:33;;;;;;;46.55;24.38;;;-3.50;1.00;;;;;;6370238;22;20083;-83
2023/03/01 02:18:22;;;;;;;55.30;25.70;;;-3.40;37.40;;;;;;6382178;22;20044;-82
2023/03/01 02:22:01;;;;;;;51.00;26.45;;;-3.30;55.30;;;;;;6382910;22;20030;-83
2023/03/01 02:24:48;;;;;;;48.10;23.73;;;-3.10;5.40;;;;;;6339945;22;20022;-83
2023/03/01 02:27:58;;;;;;;49.92;23.67;;;-3.00;1.00;;;;;;6387722;22;20022;-81
2023/03/01 02:33:56;;;;;;;48.80;24.52;;;-2.70;99.90;;;;;;6369804;22;20417;-80
2023/03/01 02:36:56;;;;;;;41.83;22.85;;;-2.50;99.90;;;;;;6370868;22;20026;-81
2023/03/01 02:39:48;;;;;;;41.13;22.75;;;-2.50;99.90;;;;;;6349658;22;20033;-82
2023/03/01 02:42:44;;;;;;;47.15;25.02;;;-2.40;99.90;;;;;;6347232;22;20030;-81
2023/03/01 02:45:31;;;;;;;44.70;22.63;;;-2.30;85.00;;;;;;6376208;22;20455;-83
2023/03/01 02:48:20;;;;;;;43.20;23.08;;;-2.30;12.30;;;;;;6378484;22;20026;-81
2023/03/01 02:51:30;;;;;;;45.10;23.80;;;-2.20;1.00;;;;;;6377180;22;20026;-80
2023/03/01 02:54:39;;;;;;;44.63;22.17;;;-2.20;1.00;;;;;;6378167;22;20105;-82
2023/03/01 02:57:34;;;;;;;43.35;22.38;;;-2.10;1.00;;;;;;6372405;22;20034;-82
2023/03/01 03:00:27;;;;;;;39.80;21.85;;;-2.10;1.00;;;;;;6349965;22;20440;-84
2023/03/01 03:03:17;;;;;;;43.25;22.33;;;-2.20;99.90;;;;;;6370403;22;20409;-83
2023/03/01 03:06:04;;;;;;;47.25;23.10;;;-2.20;99.90;;;;;;6378743;22;20019;-81
2023/03/01 03:08:58;;;;;;;45.90;23.70;;;-2.10;99.90;;;;;;6385196;22;20087;-82
2023/03/01 03:11:49;;;;;;;42.67;23.10;;;-2.00;99.90;;;;;;6377779;22;20019;-81
2023/03/01 03:14:36;;;;;;;41.47;22.98;;;-2.10;99.90;;;;;;6373368;22;20022;-81
2023/03/01 03:17:23;;;;;;;41.28;23.10;;;-2.00;99.90;;;;;;6371548;22;20041;-82
2023/03/01 03:20:18;;;;;;;38.58;22.20;;;-2.00;99.90;;;;;;6371637;22;20033;-82
2023/03/01 03:23:06;;;;;;;42.40;23.48;;;-1.90;99.90;;;;;;6348160;22;20507;-81
2023/03/01 03:25:53;;;;;;;43.83;23.42;;;-1.90;99.90;;;;;;6348277;22;20023;-82
2023/03/01 03:28:40;;;;;;;44.53;23.33;;;-1.90;99.90;;;;;;6371714;22;20389;-80
2023/03/01 03:31:30;;;;;;;41.97;23.88;;;-1.90;99.90;;;;;;6371184;22;20413;-83
2023/03/01 03:34:17;;;;;;;41.33;21.98;;;-1.90;99.90;;;;;;6372436;22;20029;-81
2023/03/01 03:38:01;;;;;;;43.88;22.52;;;-1.90;99.90;;;;;;6369483;22;20372;-81
2023/03/01 03:40:15;;;;;;;40.70;22.15;;;-1.90;99.90;;;;;;6367925;22;20127;-82
2023/03/01 03:43:05;;;;;;;42.90;21.80;;;-1.90;99.90;;;;;;6370131;22;20026;-82
2023/03/01 03:45:56;;;;;;;38.10;21.58;;;-1.80;99.90;;;;;;6370422;22;20022;-80
2023/03/01 03:48:45;;;;;;;41.10;22.30;;;-1.90;99.90;;;;;;6348493;22;20018;-82
2023/03/01 03:51:32;;;;;;;46.88;22.65;;;-1.80;99.90;;;;;;6369300;22;20034;-82
2023/03/01 03:54:19;;;;;;;43.47;22.77;;;-1.80;99.90;;;;;;6372231;22;20027;-81
2023/03/01 03:57:07;;;;;;;44.10;22.02;;;-1.80;99.90;;;;;;6369538;22;20745;-82
2023/03/01 03:59:54;;;;;;;41.53;23.52;;;-1.80;99.90;;;;;;6368172;22;20026;-81
2023/03/01 04:02:42;;;;;;;41.88;22.42;;;-1.80;99.90;;;;;;6370598;22;20037;-81
2023/03/01 04:05:30;;;;;;;46.30;24.15;;;-1.80;99.90;;;;;;6343390;22;20381;-82
2023/03/01 04:08:21;;;;;;;45.33;23.13;;;-1.80;99.90;;;;;;6368867;22;20444;-80
2023/03/01 04:11:27;;;;;;;44.45;23.92;;;-1.80;99.90;;;;;;6370933;22;20029;-81
2023/03/01 04:14:14;;;;;;;44.35;23.45;;;-1.80;99.90;;;;;;6346482;22;20041;-82
2023/03/01 04:17:04;;;;;;;43.65;23.70;;;-1.70;99.90;;;;;;6369505;22;20048;-84
2023/03/01 04:19:52;;;;;;;40.25;23.08;;;-1.70;99.90;;;;;;6345717;22;20022;-82
2023/03/01 04:22:42;;;;;;;41.70;23.08;;;-1.70;99.90;;;;;;6351149;22;20026;-82
2023/03/01 04:25:32;;;;;;;42.72;23.63;;;-1.70;99.90;;;;;;6348298;22;20079;-81
2023/03/01 04:28:26;;;;;;;44.90;23.65;;;-1.70;99.90;;;;;;6372868;22;20096;-81
2023/03/01 04:31:17;;;;;;;42.05;23.17;;;-1.70;99.90;;;;;;6373273;22;20022;-81
2023/03/01 04:34:06;;;;;;;43.20;24.38;;;-1.70;99.90;;;;;;6371065;22;20023;-81
2023/03/01 04:36:53;;;;;;;45.15;24.25;;;-1.70;99.90;;;;;;6370232;22;20413;-82
2023/03/01 04:39:47;;;;;;;44.30;23.20;;;-1.60;99.90;;;;;;6348433;22;20022;-81
2023/03/01 04:42:36;;;;;;;46.13;23.88;;;-1.60;99.90;;;;;;6349536;22;20033;-81
2023/03/01 04:45:26;;;;;;;45.05;24.00;;;-1.60;99.90;;;;;;6372747;22;20441;-82
2023/03/01 04:48:13;;;;;;;47.47;24.30;;;-1.60;99.90;;;;;;6369786;22;20022;-82
2023/03/01 04:51:00;;;;;;;45.33;24.17;;;-1.60;99.90;;;;;;6372024;22;20018;-82
2023/03/01 04:53:47;;;;;;;41.65;22.00;;;-1.60;99.90;;;;;;6370021;22;20027;-82
2023/03/01 04:56:35;;;;;;;46.70;23.85;;;-1.60;99.90;;;;;;6371525;22;20083;-81
2023/03/01 04:59:24;;;;;;;46.13;24.00;;;-1.60;99.90;;;;;;6370487;22;20410;-82
2023/03/01 05:02:55;;;;;;;46.47;23.60;;;-1.60;99.90;;;;;;6351102;22;20031;-83
2023/03/01 05:05:44;;;;;;;46.22;25.13;;;-1.60;99.90;;;;;;6372551;22;20461;-82
2023/03/01 05:08:34;;;;;;;45.95;23.73;;;-1.60;99.90;;;;;;6371116;22;20037;-83
2023/03/01 05:11:21;;;;;;;43.80;24.50;;;-1.60;99.90;;;;;;6369794;22;20026;-81
2023/03/01 05:14:12;;;;;;;51.42;23.80;;;-1.60;99.90;;;;;;6373305;22;20074;-83
2023/03/01 05:17:03;;;;;;;46.50;25.23;;;-1.60;99.90;;;;;;6370117;22;20022;-83
2023/03/01 05:19:50;;;;;;;51.33;26.23;;;-1.50;99.90;;;;;;6369057;22;20101;-80
2023/03/01 05:22:38;;;;;;;50.22;25.08;;;-1.50;99.90;;;;;;6369123;22;20034;-83
2023/03/01 05:25:32;;;;;;;46.60;25.40;;;-1.50;99.90;;;;;;6347299;22;20034;-83
2023/03/01 05:28:20;;;;;;;47.13;24.23;;;-1.50;99.90;;;;;;6347433;22;20356;-85
2023/03/01 05:31:18;;;;;;;46.50;25.53;;;-1.50;99.90;;;;;;6350154;22;20029;-85
2023/03/01 05:34:06;;;;;;;45.17;23.30;;;-1.50;99.90;;;;;;6385000;22;20022;-85
2023/03/01 05:36:54;;;;;;;45.60;25.73;;;-1.50;99.90;;;;;;6393044;22;20038;-84
2023/03/01 05:39:45;;;;;;;47.17;24.55;;;-1.50;99.90;;;;;;6356756;22;20123;-85
2023/03/01 05:42:35;;;;;;;46.17;24.73;;;-1.50;99.90;;;;;;6351294;22;20087;-88
2023/03/01 05:45:25;;;;;;;48.60;25.80;;;-1.40;99.90;;;;;;6349564;22;20034;-85
2023/03/01 05:48:13;;;;;;;49.63;24.63;;;-1.40;99.90;;;;;;6377778;22;20026;-83
2023/03/01 05:51:01;;;;;;;53.95;26.30;;;-1.40;99.90;;;;;;6350651;22;20422;-82
2023/03/01 05:53:50;;;;;;;51.22;25.63;;;-1.40;99.90;;;;;;6375965;22;20087;-85
2023/03/01 05:56:37;;;;;;;44.75;24.70;;;-1.30;99.90;;;;;;6359139;22;20109;-84
2023/03/01 05:59:24;;;;;;;49.80;25.27;;;-1.40;99.90;;;;;;6357839;22;20022;-86
2023/03/01 06:02:12;;;;;;;45.22;24.92;;;-1.40;99.90;;;;;;6377527;22;20027;-84
2023/03/01 06:05:02;;;;;;;48.22;26.58;;;-1.30;99.90;;;;;;6377357;22;20030;-85
2023/03/01 06:07:50;;;;;;;48.63;25.08;;;-1.30;99.90;;;;;;6379614;22;20046;-87
2023/03/01 06:10:37;;;;;;;45.15;26.10;;;-1.30;99.90;;;;;;6358259;22;20025;-86
2023/03/01 06:13:24;;;;;;;45.25;25.13;;;-1.30;99.90;;;;;;6389345;22;20037;-85
2023/03/01 06:16:13;;;;;;;46.10;25.08;;;-1.30;99.90;;;;;;6372205;22;20018;-86
2023/03/01 06:19:00;;;;;;;46.63;24.70;;;-1.20;99.90;;;;;;6369638;22;20022;-86
2023/03/01 06:21:50;;;;;;;45.05;24.23;;;-1.20;99.90;;;;;;6387709;22;20026;-89
2023/03/01 06:24:37;;;;;;;47.80;25.05;;;-1.20;99.90;;;;;;6364634;22;20022;-86
2023/03/01 06:27:35;;;;;;;51.83;24.75;;;-1.20;98.10;;;;;;6380819;22;20431;-85
2023/03/01 06:30:24;;;;;;;46.47;25.15;;;-1.20;94.80;;;;;;6372701;22;20014;-85
2023/03/01 06:33:19;;;;;;;49.38;25.23;;;-1.20;93.90;;;;;;6374481;22;20018;-83
2023/03/01 06:36:09;;;;;;;52.78;25.83;;;-1.10;91.20;;;;;;6349991;22;20029;-84
2023/03/01 06:38:59;;;;;;;48.83;25.65;;;-1.10;84.00;;;;;;6347477;22;20023;-84
2023/03/01 06:41:46;;;;;;;51.17;26.65;;;-1.00;75.90;;;;;;6372602;22;20042;-82
2023/03/01 06:44:33;;;;;;;48.40;24.80;;;-1.00;60.70;;;;;;6373494;22;20033;-82
2023/03/01 06:47:21;;;;;;;49.95;24.77;;;-0.90;46.30;;;;;;6372051;22;20033;-83
2023/03/01 06:50:09;;;;;;;49.10;24.23;;;-0.80;32.80;;;;;;6370756;22;20129;-83
2023/03/01 06:52:57;;;;;;;44.20;24.38;;;-0.80;20.00;;;;;;6359901;22;20019;-83
2023/03/01 06:55:46;;;;;;;46.13;24.63;;;-0.70;11.50;;;;;;6385343;22;20022;-82
2023/03/01 06:58:34;;;;;;;45.15;25.23;;;-0.50;1.60;;;;;;6385599;22;20018;-83
2023/03/01 07:01:21;;;;;;;38.72;22.85;;;-0.40;1.00;;;;;;6394431;22;20017;-81
2023/03/01 07:04:08;;;;;;;43.42;24.83;;;-0.20;1.00;;;;;;6392832;22;20167;-82
2023/03/01 07:06:55;;;;;;;46.85;24.48;;;-0.10;1.00;;;;;;6386132;22;20027;-83
2023/03/01 07:09:43;;;;;;;46.42;23.92;;;0.00;1.00;;;;;;6363938;22;20048;-82
2023/03/01 07:12:30;;;;;;;43.28;24.60;;;0.00;1.00;;;;;;6376160;22;20094;-83
2023/03/01 07:15:18;;;;;;;43.65;23.85;;;0.10;1.00;;;;;;6354155;22;20633;-83
2023/03/01 07:18:07;;;;;;;42.33;24.55;;;0.10;1.00;;;;;;6353654;22;20029;-82
2023/03/01 07:20:56;;;;;;;39.58;21.52;;;0.20;1.00;;;;;;6375991;22;20022;-83
2023/03/01 07:23:43;;;;;;;42.47;22.85;;;0.20;1.00;;;;;;6383077;22;20022;-82
2023/03/01 07:26:30;;;;;;;44.75;24.23;;;0.30;1.00;;;;;;6384361;22;20101;-83
2023/03/01 07:29:28;;;;;;;42.60;23.92;;;0.30;1.00;;;;;;6394386;22;20022;-80
2023/03/01 07:32:18;;;;;;;51.60;23.83;;;0.30;1.00;;;;;;6351415;22;20037;-82
2023/03/01 07:35:05;;;;;;;43.47;24.00;;;0.50;1.00;;;;;;6373346;22;20034;-81
2023/03/01 07:37:53;;;;;;;37.42;21.60;;;0.70;1.00;;;;;;6373547;22;20018;-85
2023/03/01 07:40:40;;;;;;;41.92;23.65;;;0.90;99.90;;;;;;6349560;22;20046;-84
2023/03/01 07:43:29;;;;;;;43.30;23.08;;;1.00;99.90;;;;;;6370795;22;20037;-81
2023/03/01 07:46:18;;;;;;;39.92;22.33;;;1.30;99.90;;;;;;6369646;22;20023;-81
2023/03/01 07:49:06;;;;;;;44.20;22.63;;;1.60;99.90;;;;;;6368380;22;20500;-83
2023/03/01 07:51:53;;;;;;;40.35;22.77;;;1.70;99.90;;;;;;6370912;22;20018;-82
2023/03/01 07:54:44;;;;;;;40.72;22.40;;;1.80;99.90;;;;;;6374410;22;20019;-83
2023/03/01 07:57:31;;;;;;;39.50;22.95;;;1.90;99.90;;;;;;6362692;22;20056;-82
2023/03/01 08:00:21;;;;;;;41.05;23.42;;;2.00;99.90;;;;;;6381585;22;20034;-83
2023/03/01 08:03:08;;;;;;;40.10;22.38;;;1.90;99.90;;;;;;6371275;22;20026;-80
2023/03/01 08:05:56;;;;;;;42.08;22.70;;;2.00;99.90;;;;;;6373684;22;20468;-81
2023/03/01 08:08:44;;;;;;;35.58;22.35;;;2.00;99.90;;;;;;6372859;22;20406;-82
2023/03/01 08:11:32;;;;;;;39.35;22.65;;;2.10;99.90;;;;;;6371754;22;20075;-83
2023/03/01 08:14:21;;;;;;;37.53;22.02;;;2.10;99.90;;;;;;6346735;22;20782;-82
2023/03/01 08:17:09;;;;;;;39.47;22.83;;;2.10;99.90;;;;;;6368490;22;20026;-83
2023/03/01 08:19:56;;;;;;;38.45;23.05;;;2.30;99.90;;;;;;6371801;22;20034;-82
2023/03/01 08:22:45;;;;;;;35.85;22.33;;;2.80;99.90;;;;;;6369401;22;20030;-83
2023/03/01 08:25:33;;;;;;;36.90;20.85;;;3.40;99.90;;;;;;6371762;22;20026;-81
2023/03/01 08:28:27;;;;;;;37.05;22.50;;;3.40;99.90;;;;;;6370919;22;20041;-84
2023/03/01 08:31:27;;;;;;;38.88;22.98;;;3.50;99.90;;;;;;6367820;22;20037;-82
2023/03/01 08:34:17;;;;;;;39.85;23.45;;;3.40;99.90;;;;;;6372792;22;20049;-85
2023/03/01 08:37:05;;;;;;;38.53;22.73;;;3.40;99.90;;;;;;6372738;22;20034;-85
2023/03/01 08:39:52;;;;;;;36.28;21.58;;;3.50;99.90;;;;;;6370087;22;20417;-84
2023/03/01 08:42:43;;;;;;;35.90;21.88;;;3.90;99.90;;;;;;6346662;22;20103;-83
2023/03/01 08:45:30;;;;;;;32.80;21.92;;;4.40;99.90;;;;;;6345636;22;20037;-85
2023/03/01 08:48:17;;;;;;;40.10;21.98;;;4.80;99.90;;;;;;6345714;22;20026;-80
2023/03/01 08:51:09;;;;;;;34.10;21.10;;;5.00;99.90;;;;;;6368912;22;20327;-83
2023/03/01 08:53:56;;;;;;;36.05;22.25;;;4.60;99.90;;;;;;6368059;22;20339;-82
2023/03/01 08:56:44;;;;;;;37.67;22.50;;;4.60;99.90;;;;;;6369581;22;20022;-79
2023/03/01 08:59:36;;;;;;;36.20;21.70;;;4.50;99.90;;;;;;6368483;22;20052;-81
2023/03/01 09:02:26;;;;;;;41.08;23.23;;;4.20;99.90;;;;;;6346517;22;20027;-84
2023/03/01 09:05:13;;;;;;;38.13;22.75;;;4.40;99.90;;;;;;6346969;22;20026;-83
2023/03/01 09:08:01;;;;;;;37.33;21.33;;;4.40;99.90;;;;;;6347600;22;20083;-84
2023/03/01 09:10:48;;;;;;;38.40;22.90;;;4.60;99.90;;;;;;6370010;22;20101;-82
2023/03/01 09:13:36;;;;;;;41.78;23.02;;;4.30;99.90;;;;;;6349863;22;20037;-81
2023/03/01 09:16:23;;;;;;;31.45;21.42;;;4.20;99.90;;;;;;6372683;22;20486;-82
2023/03/01 09:19:11;;;;;;;37.17;22.77;;;4.20;99.90;;;;;;6369560;22;20383;-82
2023/03/01 09:21:58;;;;;;;37.60;22.33;;;3.90;99.90;;;;;;6369997;22;20076;-82
2023/03/01 09:24:45;;;;;;;40.50;23.98;;;3.90;99.90;;;;;;6371585;22;20033;-80
2023/03/01 09:27:33;;;;;;;41.83;22.30;;;4.00;99.90;;;;;;6350170;22;20072;-81
2023/03/01 09:30:21;;;;;;;37.40;22.52;;;4.30;99.90;;;;;;6371004;22;20022;-81
2023/03/01 09:33:14;;;;;;;38.70;23.02;;;4.50;99.90;;;;;;6370759;22;20018;-82
2023/03/01 09:36:06;;;;;;;33.92;21.50;;;5.00;99.90;;;;;;6369088;22;20019;-80
2023/03/01 09:38:58;;;;;;;34.60;21.75;;;5.40;99.90;;;;;;6370644;22;20022;-83
2023/03/01 09:42:05;;;;;;;35.65;21.38;;;5.40;99.90;;;;;;6371575;22;20030;-83
2023/03/01 09:45:06;;;;;;;39.75;21.92;;;5.60;99.30;;;;;;6369668;22;20014;-81
2023/03/01 09:47:55;;;;;;;30.52;19.83;;;6.20;95.10;;;;;;6346513;22;20083;-81
2023/03/01 09:50:48;;;;;;;35.20;22.48;;;5.60;90.00;;;;;;6348432;22;20018;-81
2023/03/01 09:53:37;;;;;;;35.75;21.27;;;5.60;87.00;;;;;;6346619;22;20029;-80
2023/03/01 09:56:52;;;;;;;40.40;21.98;;;5.40;83.80;;;;;;6371583;22;20022;-82
2023/03/01 09:59:46;;;;;;;37.10;21.92;;;5.70;85.40;;;;;;6372836;22;20056;-84
2023/03/01 10:02:39;;;;;;;31.70;20.73;;;6.30;79.00;;;;;;6369694;22;20034;-85
2023/03/01 10:05:58;;;;;;;34.67;20.27;;;7.10;73.90;;;;;;6348773;22;20030;-83
2023/03/01 10:08:54;;;;;;;31.58;20.65;;;7.80;66.00;;;;;;6348184;22;20052;-83
2023/03/01 10:11:47;;;;;;;32.05;19.67;;;7.50;57.10;;;;;;6370893;22;20026;-82
2023/03/01 10:14:49;;;;;;;33.13;21.10;;;7.40;51.10;;;;;;6371438;22;20022;-84
2023/03/01 10:17:47;;;;;;;35.47;20.42;;;7.60;48.00;;;;;;6372882;22;20033;-83
2023/03/01 10:20:51;;;;;;;30.90;19.52;;;7.70;43.00;;;;;;6379528;22;20018;-82
2023/03/01 10:23:39;;;;;;;37.55;20.90;;;7.70;43.40;;;;;;6381030;22;20030;-82
2023/03/01 10:26:34;;;;;;;28.85;19.75;;;8.30;39.70;;;;;;6376128;22;20030;-83
2023/03/01 10:29:31;;;;;;;28.13;19.88;;;8.60;37.70;;;;;;6371960;22;20033;-81
2023/03/01 10:32:19;;;;;;;31.67;19.63;;;8.30;29.40;;;;;;6369148;22;20022;-82
2023/03/01 10:35:36;;;;;;;32.88;21.08;;;8.50;28.70;;;;;;6350892;22;20036;-86
2023/03/01 10:38:24;;;;;;;33.65;20.95;;;7.90;23.90;;;;;;6362096;22;20446;-81
2023/03/01 10:41:12;;;;;;;30.73;19.33;;;8.10;27.30;;;;;;6347332;22;20030;-84
2023/03/01 10:44:00;;;;;;;31.38;20.63;;;8.50;24.20;;;;;;6371016;22;20026;-82
2023/03/01 10:47:00;;;;;;;33.25;19.15;;;9.10;25.20;;;;;;6368029;22;20030;-83
2023/03/01 10:49:54;;;;;;;29.08;18.67;;;9.40;28.20;;;;;;6368718;22;20302;-81
2023/03/01 10:52:43;;;;;;;29.38;18.73;;;9.10;21.00;;;;;;6348079;22;20036;-80
2023/03/01 10:55:30;;;;;;;33.42;20.33;;;9.80;20.90;;;;;;6370576;22;20022;-82
2023/03/01 10:58:20;;;;;;;29.27;18.73;;;10.30;16.30;;;;;;6348935;22;20071;-82
2023/03/01 11:01:17;;;;;;;28.25;18.70;;;10.00;12.00;;;;;;6371224;22;20316;-81
2023/03/01 11:04:07;;;;;;;30.88;19.45;;;9.90;11.70;;;;;;6369267;22;20033;-85
2023/03/01 11:07:02;;;;;;;26.17;18.27;;;10.00;10.20;;;;;;6370772;22;20064;-83
2023/03/01 11:09:51;;;;;;;29.40;18.73;;;10.30;9.80;;;;;;6369371;22;20022;-81
2023/03/01 11:12:39;;;;;;;32.38;20.08;;;10.10;5.10;;;;;;6370347;22;20033;-82
2023/03/01 11:15:28;;;;;;;28.58;18.02;;;10.30;6.00;;;;;;6349018;22;20113;-81
2023/03/01 11:18:25;;;;;;;26.25;18.42;;;11.30;5.20;;;;;;6369470;22;20026;-81
2023/03/01 11:21:34;;;;;;;27.65;19.38;;;11.50;3.80;;;;;;6367612;22;20042;-80
2023/03/01 11:24:31;;;;;;;28.38;18.95;;;10.90;1.00;;;;;;6368998;22;20034;-80
2023/03/01 11:27:26;;;;;;;28.23;18.63;;;10.50;1.00;;;;;;6367933;22;20037;-85
2023/03/01 11:30:16;;;;;;;29.33;19.13;;;10.40;1.00;;;;;;6371119;22;20292;-82
2023/03/01 11:33:18;;;;;;;29.67;18.58;;;10.50;1.00;;;;;;6368519;22;20029;-85
2023/03/01 11:36:07;;;;;;;29.73;19.13;;;10.60;1.00;;;;;;6348361;22;20331;-80
2023/03/01 11:38:58;;;;;;;30.05;19.05;;;10.60;1.00;;;;;;6367523;22;20128;-82
2023/03/01 11:41:52;;;;;;;31.35;19.73;;;11.30;1.00;;;;;;6347837;22;20050;-82
2023/03/01 11:44:43;;;;;;;33.30;19.33;;;11.30;1.00;;;;;;6370245;22;20032;-83
2023/03/01 11:47:56;;;;;;;27.13;18.83;;;11.40;1.00;;;;;;6368797;22;20026;-80
2023/03/01 11:50:50;;;;;;;26.27;17.80;;;11.60;1.00;;;;;;6366896;22;20022;-81
2023/03/01 11:54:00;;;;;;;25.75;17.67;;;11.80;1.00;;;;;;6370432;22;20444;-83
2023/03/01 11:56:54;;;;;;;24.15;17.27;;;12.20;1.00;;;;;;6348008;22;20418;-83
2023/03/01 11:59:56;;;;;;;27.48;17.50;;;11.60;1.00;;;;;;6370525;22;20401;-83
2023/03/01 12:03:15;;;;;;;27.80;18.35;;;11.80;1.00;;;;;;6370001;22;20034;-81
2023/03/01 12:06:08;;;;;;;26.70;17.73;;;11.90;1.00;;;;;;6372985;22;20438;-83
2023/03/01 12:09:13;;;;;;;27.85;18.23;;;12.30;1.00;;;;;;6349525;22;20079;-85
2023/03/01 12:12:29;;;;;;;29.38;19.02;;;13.10;1.00;;;;;;6370714;22;20022;-83
2023/03/01 12:15:27;;;;;;;31.35;18.33;;;13.10;1.00;;;;;;6324354;22;20022;-82
2023/03/01 12:18:54;;;;;;;26.80;19.05;;;13.20;1.00;;;;;;6345710;22;20022;-83
2023/03/01 12:21:58;;;;;;;26.30;18.52;;;13.30;1.00;;;;;;6348307;22;20351;-84
2023/03/01 12:24:57;;;;;;;24.83;17.95;;;13.60;1.00;;;;;;6370569;22;20091;-84
2023/03/01 12:28:05;;;;;;;25.77;18.23;;;13.80;1.00;;;;;;6370801;22;20019;-84
2023/03/01 12:31:05;;;;;;;26.58;17.77;;;14.10;1.00;;;;;;6372185;22;20026;-85
2023/03/01 12:34:09;;;;;;;24.63;17.48;;;13.50;1.00;;;;;;6372459;22;20022;-84
2023/03/01 12:37:19;;;;;;;27.73;18.00;;;13.80;1.00;;;;;;6370435;22;20425;-83
2023/03/01 12:40:43;;;;;;;24.85;17.52;;;14.10;1.00;;;;;;6372333;22;20026;-88
2023/03/01 12:44:01;;;;;;;26.73;18.00;;;13.40;1.00;;;;;;6374396;22;20087;-83
2023/03/01 12:47:19;;;;;;;26.30;18.25;;;12.80;1.00;;;;;;6373027;22;20030;-81
2023/03/01 12:50:21;;;;;;;26.73;17.73;;;12.80;1.00;;;;;;6364843;22;20322;-84
2023/03/01 12:53:43;;;;;;;24.90;17.67;;;13.30;1.00;;;;;;6348026;22;20030;-83
2023/03/01 12:56:38;;;;;;;23.48;17.38;;;12.20;1.00;;;;;;6370716;22;20046;-82
2023/03/01 12:59:46;;;;;;;24.98;17.10;;;12.40;1.00;;;;;;6351510;22;20034;-82
2023/03/01 13:02:52;;;;;;;24.13;17.20;;;13.00;1.00;;;;;;6348360;22;20037;-84
2023/03/01 13:06:13;;;;;;;24.75;17.13;;;13.70;1.00;;;;;;6372485;22;20018;-83
2023/03/01 13:09:32;;;;;;;25.27;17.33;;;14.60;1.00;;;;;;6370701;22;20022;-83
2023/03/01 13:12:42;;;;;;;25.80;17.73;;;14.70;1.00;;;;;;6348522;22;20075;-83
2023/03/01 13:19:58;;;;;;;24.58;16.83;;;13.70;1.00;;;;;;6370006;22;20405;-85
2023/03/01 13:23:08;;;;;;;26.02;16.67;;;15.30;1.00;;;;;;6348785;22;20029;-83
2023/03/01 13:26:15;;;;;;;23.17;16.85;;;15.30;1.00;;;;;;6370131;22;20108;-83
2023/03/01 13:29:05;;;;;;;24.42;16.25;;;16.10;1.00;;;;;;6346858;22;20037;-82
2023/03/01 13:32:03;;;;;;;23.95;16.67;;;16.00;1.00;;;;;;6370539;22;20032;-83
2023/03/01 13:34:59;;;;;;;27.02;15.77;;;14.60;1.00;;;;;;6346785;22;20018;-85
2023/03/01 13:37:51;;;;;;;23.70;16.45;;;14.40;1.00;;;;;;6346092;22;20033;-81
2023/03/01 13:40:44;;;;;;;24.23;16.33;;;14.20;1.00;;;;;;6345858;22;20044;-84
2023/03/01 13:43:42;;;;;;;22.52;15.57;;;14.60;1.00;;;;;;6347112;22;20026;-81
2023/03/01 13:52:31;;;;;;;23.60;16.25;;;13.20;1.00;;;;;;6110539;23;20108;-87
2023/03/01 13:55:13;;;;;;;22.67;16.15;;;13.00;1.00;;;;;;6160998;23;20321;-85
2023/03/01 13:58:13;;;;;;;25.65;15.60;;;12.60;1.00;;;;;;6224963;22;20053;-84
2023/03/01 14:01:02;;;;;;;23.15;16.58;;;12.80;1.00;;;;;;6280534;22;20024;-85
2023/03/01 14:03:50;;;;;;;25.05;15.88;;;12.40;1.00;;;;;;6281434;22;20024;-82
2023/03/01 14:06:37;;;;;;;22.25;15.55;;;12.00;1.00;;;;;;6278776;22;20106;-86
2023/03/01 14:09:32;;;;;;;22.10;15.57;;;12.10;1.00;;;;;;6256980;22;20027;-82
2023/03/01 14:12:26;;;;;;;29.25;15.68;;;12.20;1.00;;;;;;6276097;22;20027;-84
2023/03/01 14:15:27;;;;;;;21.88;16.02;;;13.30;1.00;;;;;;6276863;22;20023;-83
2023/03/01 14:18:39;;;;;;;22.10;15.48;;;13.70;1.00;;;;;;6276255;22;20019;-80
2023/03/01 14:21:29;;;;;;;25.42;15.43;;;12.60;1.00;;;;;;6311743;22;20080;-85
2023/03/01 14:24:22;;;;;;;20.30;13.70;;;12.60;1.00;;;;;;6369316;22;20224;-82
2023/03/01 14:27:16;;;;;;;22.00;14.95;;;12.80;1.00;;;;;;6346819;22;20109;-83
2023/03/01 14:30:17;;;;;;;20.17;14.98;;;12.50;1.00;;;;;;6346595;22;20321;-81
2023/03/01 14:37:57;;;;;;;23.95;15.38;;;13.20;1.00;;;;;;6173841;23;20048;-85
2023/03/01 14:40:59;;;;;;;24.88;16.05;;;13.40;1.00;;;;;;6182604;22;20108;-82
2023/03/01 14:43:55;;;;;;;;;;;13.00;1.00;;;;;;6272750;22;20081;-82
2023/03/01 14:47:06;;;;;;;31.88;18.38;;;12.60;1.00;;;;;;6252817;22;19915;-83
2023/03/01 14:50:09;;;;;;;28.50;18.63;;;11.80;1.00;;;;;;6271299;22;20023;-82
2023/03/01 14:53:06;;;;;;;26.80;18.40;;;11.50;1.00;;;;;;6253894;22;20020;-85
2023/03/01 14:56:02;;;;;;;29.50;18.50;;;11.80;1.00;;;;;;6274254;22;20430;-81
2023/03/01 14:59:35;;;;;;;29.83;20.35;;;11.40;1.00;;;;;;6274183;22;20030;-87
2023/03/01 15:30:42;;;;;;;34.78;20.63;;;11.10;1.00;;;;;;6049573;23;20027;-85
2023/03/01 15:33:52;;;;;;;34.03;20.70;;;10.40;1.00;;;;;;6137682;23;20100;-86